Rosamond, CA

8:13 PM PDT on October 24, 2014 (GMT -0700)
Tehachapi Municipal | Change Station
CLOSE
Current Station
Airport
Location: Tehachapi,
Elevation: 3999 ft
Nearby Weather Stations

Elev 3999 ft 35.13 °N, 118.44 °W | Updated 18 minutes ago

Clear
Clear
63 °F
Feels Like 63 °F
N
5
Wind Variable Wind from NNE

Today
High -- | Low -- °F
--% Chance of Precip.
Yesterday
High -- | Low -- °F
Precip. -- in
7:06 AM 6:07 PM
New Moon, 2% visible
Pressure 30.10 in
Visibility 10.0 miles
Clouds Clear
Dew Point 16 °F
Humidity 16%
Rainfall 0.00 in
Snow Depth Not available.
UV 0 out of 12
Pollen 4.10 out of 12
Ozone Good
Flu Activity Sporadic
METAR KTSP 250255Z AUTO 03004KT 10SM CLR 17/M09 A3010 RMK AO2

More Conditions Fewer Conditions

Pressure 30.10 in
Visibility 10.0 miles
Clouds Clear
Dew Point 16 °F
Humidity 16%
Rainfall 0.00 in
Snow Depth Not available.
UV 0 out of 12
Pollen 4.10 out of 12
Ozone Good
Flu Activity Sporadic
METAR KTSP 250255Z AUTO 03004KT 10SM CLR 17/M09 A3010 RMK AO2

More Conditions Fewer Conditions

10-Day Weather Forecast

Almanac

Astronomy

Oct. 24, 2014 Rise Set
Actual Time 7:06 AM PDT 6:07 PM PDT
Civil Twilight 6:40 AM PDT 6:33 PM PDT
Nautical Twilight 6:11 AM PDT 7:02 PM PDT
Astronomical Twilight 5:41 AM PDT 7:31 PM PDT
Moon 7:49 AM PDT (10/24) 6:52 PM PDT (10/24)
Length of Visible Light 11h 52m
Length of Day
11h 00m
Tomorrow will be 2m 0s shorter.
New Moon, 2% of the Moon is Illuminated
Today
New Moon
Oct 30
First Quarter
Nov 6
Full
Nov 14
Last Quarter
Nov 22
New

Today's Extremes

State Highs State Lows

Community

WunderPhotos

Upload Photos

1,764,763 photos uploaded!

Nearby

Air Quality

  Air Quality AQ Index Pollutant
Yesterday Good
OZONE
Current Good
OZONE
Saturday Good
PM10
Saturday Good
OZONE
Saturday Good
CO
Saturday Good
NO2

Snow Depth

Station Depth Elevation
Virginia Lakes Ridge 0 in 9200 ft
Leavitt Lake 1 in 9400 ft
Leavitt Meadows 1 in 7200 ft
Summit Meadow 1 in 9122 ft
Monitor Pass 0 in 8350 ft

Earthquake Activity

City Distance Mag. Time & Date
Brea, California 67 miles 2.9 3:35 PM PDT
2014-10-23
Brea, California 67 miles 2.8 3:34 PM PDT
2014-10-23
Corona, California 76 miles 2.5 1:09 PM PDT
2014-10-23
Solvang, California 111 miles 2.6 5:35 PM PDT
2014-10-22
Minimum magnitude displayed is 2.5.

Coastal Water Temperatures

Place Temperature
No Stations Reporting

Nearby Weather Stations